Terminal Aerodrome Forecast
Issued by NWS Detroit/Pontiac, MI

Home | Current Version | Previous Version | Text Only | Print | Product List | Glossary On
Versions: 1 2 3 4 5 6 7 8 9 10 11 12 13 14 15 16 17 18 19 20 21 22 23 24 25 26 27
570
FTUS43 KDTX 171457 AAA
TAFDTW
TAF AMD
KDTW 171457Z 1715/1818 14007KT 2SM BR OVC003
      TEMPO 1715/1717 1/2SM FG OVC002
     FM171700 20008KT 2SM BR OVC006
     FM171900 22013G20KT 6SM BR OVC012
     FM172300 24010KT 5SM -DZ BR OVC008
     FM180400 25008KT 3SM -RA BR OVC006
     FM181400 26006KT 5SM BR OVC015=

USA.gov is the U.S. government's official web portal to all federal, state and local government web resources and services.